createdAt,value
2017-08-20T00:00:30.311Z,84.70
2017-08-20T00:03:01.313Z,85.10
2017-08-20T00:08:28.154Z,84.90
2017-08-20T00:10:59.907Z,85.30
2017-08-20T00:13:28.458Z,85.10
2017-08-20T00:16:00.004Z,85.00
2017-08-20T00:18:32.571Z,84.60
2017-08-20T00:21:06.493Z,84.80
2017-08-20T00:23:40.840Z,84.30
2017-08-20T00:26:11.590Z,84.60
2017-08-20T00:28:40.087Z,83.80
2017-08-20T00:31:10.749Z,83.80
2017-08-20T00:33:41.774Z,83.90
2017-08-20T00:36:13.048Z,83.30
2017-08-20T00:38:43.308Z,83.30
2017-08-20T00:41:11.352Z,83.40
2017-08-20T00:43:39.819Z,83.50
2017-08-20T00:46:17.628Z,83.50
2017-08-20T00:48:53.790Z,83.70
2017-08-20T00:54:04.579Z,83.40
2017-08-20T00:56:33.164Z,83.50
2017-08-20T00:59:02.757Z,83.10
2017-08-20T01:01:31.561Z,83.10
2017-08-20T01:04:02.071Z,83.40
2017-08-20T01:06:30.904Z,83.30
2017-08-20T01:09:00.306Z,83.00
2017-08-20T01:11:30.605Z,82.70
2017-08-20T01:14:04.374Z,82.90
2017-08-20T01:16:33.092Z,82.40
2017-08-20T01:19:03.107Z,81.70
2017-08-20T01:21:35.882Z,81.60
2017-08-20T01:24:05.436Z,81.30
2017-08-20T01:26:35.308Z,80.80
2017-08-20T01:41:08.798Z,80.90
2017-08-20T01:43:36.655Z,80.50
2017-08-20T01:46:05.865Z,80.40
2017-08-20T01:48:34.068Z,80.30
2017-08-20T01:51:01.658Z,80.70
2017-08-20T01:53:30.590Z,80.90
2017-08-20T01:56:03.564Z,80.70
2017-08-20T01:58:37.829Z,81.40
2017-08-20T02:01:05.960Z,81.50
2017-08-20T02:03:34.657Z,81.60
2017-08-20T02:06:03.941Z,82.00
2017-08-20T02:11:08.218Z,81.80
2017-08-20T02:13:36.713Z,82.00
2017-08-20T02:16:06.732Z,81.90
2017-08-20T02:18:34.756Z,82.30
2017-08-20T02:21:03.236Z,82.00
2017-08-20T02:23:30.780Z,82.10
2017-08-20T02:25:58.454Z,82.40
2017-08-20T02:28:26.908Z,82.10
2017-08-20T02:30:55.734Z,82.40
2017-08-20T02:33:24.658Z,82.20
2017-08-20T02:35:53.395Z,82.50
2017-08-20T02:38:22.279Z,82.30
2017-08-20T02:40:51.331Z,83.00
2017-08-20T02:43:23.042Z,82.70
2017-08-20T02:45:51.223Z,82.90
2017-08-20T02:48:19.504Z,83.10
2017-08-20T02:50:47.572Z,83.20
2017-08-20T02:53:15.946Z,83.30
2017-08-20T02:55:44.532Z,83.50
2017-08-20T02:58:12.417Z,84.00
2017-08-20T03:00:40.605Z,84.10
2017-08-20T03:03:08.543Z,84.30
2017-08-20T03:05:38.496Z,84.70
2017-08-20T03:08:06.769Z,84.80
2017-08-20T03:10:34.388Z,85.10
2017-08-20T03:13:01.944Z,85.20
2017-08-20T03:15:30.219Z,85.40
2017-08-20T03:17:58.372Z,85.40
2017-08-20T03:20:26.193Z,85.80
2017-08-20T03:22:53.824Z,85.40
2017-08-20T03:25:21.530Z,85.50
2017-08-20T03:27:53.421Z,85.60
2017-08-20T03:30:21.473Z,85.90
2017-08-20T03:32:52.440Z,86.30
2017-08-20T03:35:20.801Z,86.10
2017-08-20T03:37:50.488Z,85.90
2017-08-20T03:40:18.351Z,85.90
2017-08-20T03:45:29.039Z,86.30
2017-08-20T03:47:57.994Z,86.30
2017-08-20T03:50:25.556Z,86.40
2017-08-20T03:52:53.302Z,86.30
2017-08-20T03:55:21.135Z,86.20
2017-08-20T03:57:48.651Z,86.30
2017-08-20T04:00:16.564Z,86.40
2017-08-20T04:02:50.467Z,86.40
2017-08-20T04:05:18.671Z,86.80
2017-08-20T04:07:46.381Z,86.80
2017-08-20T04:10:14.079Z,86.90
2017-08-20T04:12:42.581Z,86.90
2017-08-20T04:15:10.911Z,86.80
2017-08-20T04:17:41.078Z,86.90
2017-08-20T04:20:11.536Z,87.10
2017-08-20T04:22:45.752Z,87.40
2017-08-20T04:25:14.591Z,87.50
2017-08-20T04:27:43.332Z,87.40
2017-08-20T04:30:15.860Z,87.10
2017-08-20T04:32:44.081Z,87.30
2017-08-20T04:35:11.686Z,87.10
2017-08-20T04:37:40.460Z,87.40
2017-08-20T04:40:08.921Z,87.00
2017-08-20T04:42:37.595Z,87.00
2017-08-20T04:45:05.298Z,86.90
2017-08-20T04:47:33.223Z,86.90
2017-08-20T04:50:03.190Z,86.90
2017-08-20T04:52:31.070Z,86.50
2017-08-20T04:54:58.802Z,86.40
2017-08-20T04:57:26.469Z,86.10
2017-08-20T04:59:53.987Z,86.40
2017-08-20T05:02:23.540Z,86.40
2017-08-20T05:04:52.831Z,86.50
2017-08-20T05:07:20.564Z,86.40
2017-08-20T05:09:49.773Z,86.00
2017-08-20T05:12:17.709Z,86.50
2017-08-20T05:14:45.414Z,86.20
2017-08-20T05:17:13.263Z,85.90
2017-08-20T05:19:42.157Z,86.10
2017-08-20T05:22:10.909Z,86.50
2017-08-20T05:24:38.742Z,85.40
2017-08-20T05:27:06.419Z,84.70
2017-08-20T05:29:34.365Z,85.00
2017-08-20T05:32:01.948Z,84.90
2017-08-20T05:34:29.786Z,85.00
2017-08-20T05:36:57.549Z,85.00
2017-08-20T05:39:25.224Z,84.50
2017-08-20T05:41:52.971Z,84.50
2017-08-20T05:44:20.613Z,84.40
2017-08-20T05:46:48.124Z,84.10
2017-08-20T05:49:15.703Z,83.30
2017-08-20T05:51:43.763Z,82.50
2017-08-20T05:54:11.315Z,82.90
2017-08-20T05:56:38.874Z,83.00
2017-08-20T05:59:06.393Z,83.00
2017-08-20T06:01:33.967Z,83.20
2017-08-20T06:04:01.664Z,83.20
2017-08-20T06:06:29.299Z,83.50
2017-08-20T06:08:57.179Z,83.80
2017-08-20T06:11:25.471Z,84.00
2017-08-20T06:13:53.240Z,84.10
2017-08-20T06:16:21.156Z,83.90
2017-08-20T06:18:49.213Z,83.60
2017-08-20T06:21:16.776Z,83.70
2017-08-20T06:23:44.695Z,83.70
2017-08-20T06:26:12.520Z,83.80
2017-08-20T06:28:40.217Z,83.70
2017-08-20T06:31:07.987Z,83.90
2017-08-20T06:33:35.700Z,83.50
2017-08-20T06:36:03.408Z,83.50
2017-08-20T06:38:31.400Z,83.30
2017-08-20T06:41:00.222Z,83.60
2017-08-20T06:43:28.057Z,83.40
2017-08-20T06:45:55.760Z,82.70
2017-08-20T06:48:24.160Z,82.70
2017-08-20T06:50:51.784Z,82.00
2017-08-20T06:53:19.583Z,81.50
2017-08-20T06:55:47.172Z,80.20
2017-08-20T06:58:14.726Z,79.50
2017-08-20T07:00:42.500Z,79.20
2017-08-20T07:03:10.154Z,78.80
2017-08-20T07:05:38.072Z,78.10
2017-08-20T07:08:09.330Z,77.10
2017-08-20T07:10:48.303Z,77.50
2017-08-20T07:13:19.311Z,78.10
2017-08-20T07:15:48.235Z,78.10
2017-08-20T07:18:17.105Z,79.10
2017-08-20T07:20:46.686Z,79.40
2017-08-20T07:23:15.876Z,79.50
2017-08-20T07:25:45.426Z,79.70
2017-08-20T07:28:14.504Z,78.80
2017-08-20T07:30:43.691Z,78.60
2017-08-20T07:33:12.409Z,75.60
2017-08-20T07:35:45.449Z,73.10
2017-08-20T07:46:36.360Z,67.00
2017-08-20T07:49:09.767Z,64.80
2017-08-20T07:51:43.567Z,64.20
2017-08-20T07:54:14.788Z,63.90
2017-08-20T07:56:46.851Z,62.70
2017-08-20T07:59:15.694Z,62.40
2017-08-20T08:01:44.103Z,62.20
2017-08-20T08:06:52.839Z,61.40
2017-08-20T08:09:22.350Z,59.20
2017-08-20T08:11:54.151Z,59.00
2017-08-20T08:14:24.921Z,58.30
2017-08-20T08:16:54.441Z,57.40
2017-08-20T08:19:23.462Z,57.60
2017-08-20T08:21:52.660Z,57.30
2017-08-20T08:24:27.730Z,55.40
2017-08-20T08:26:58.170Z,53.50
2017-08-20T08:29:27.780Z,53.90
2017-08-20T08:31:55.780Z,53.40
2017-08-20T08:34:24.379Z,54.90
2017-08-20T08:36:53.817Z,54.90
2017-08-20T08:39:22.576Z,54.60
2017-08-20T08:41:50.970Z,54.60
2017-08-20T08:44:20.133Z,54.80
2017-08-20T08:46:49.595Z,54.90
2017-08-20T08:49:18.095Z,54.00
2017-08-20T08:51:46.248Z,53.30
2017-08-20T08:54:18.077Z,55.50
2017-08-20T08:56:46.696Z,56.50
2017-08-20T08:59:28.334Z,58.00
2017-08-20T09:01:58.390Z,58.40
2017-08-20T09:04:32.858Z,58.50
2017-08-20T09:07:03.530Z,59.40
2017-08-20T09:09:42.891Z,59.50
2017-08-20T09:12:11.348Z,58.60
2017-08-20T09:14:42.005Z,57.70
2017-08-20T09:17:10.165Z,57.70
2017-08-20T09:19:41.803Z,58.00
2017-08-20T09:22:12.182Z,57.90
2017-08-20T09:24:41.164Z,56.90
2017-08-20T09:27:11.663Z,54.00
2017-08-20T09:29:41.996Z,52.50
2017-08-20T09:37:52.102Z,55.80
2017-08-20T09:40:21.593Z,54.90
2017-08-20T09:42:57.735Z,55.00
2017-08-20T09:45:25.593Z,54.90
2017-08-20T09:47:53.599Z,55.30
2017-08-20T09:50:21.541Z,56.30
2017-08-20T09:52:50.411Z,57.50
2017-08-20T09:55:22.757Z,58.10
2017-08-20T09:57:50.749Z,58.70
2017-08-20T10:00:19.710Z,59.50
2017-08-20T10:02:48.265Z,60.00
2017-08-20T10:05:16.871Z,59.70
2017-08-20T10:07:44.895Z,60.80
2017-08-20T10:10:14.006Z,60.50
2017-08-20T10:12:41.680Z,60.70
2017-08-20T10:15:11.783Z,59.70
2017-08-20T10:17:39.954Z,59.90
2017-08-20T10:20:13.407Z,60.00
2017-08-20T10:22:41.439Z,60.40
